Latest Weather Observations for Hay Airport

IDN60801

Issued at 10:03 pm EST Thursday 2 July 2015 (issued every 30 minutes, with the page automatically refreshed every 10 minutes)

About weather observations | Map of weather stations | Latest weather observations for NSW | Other Formats
Station Details ID: 075019 Name: HAY AIRPORT AWS Lat: -34.54 Lon: 144.83 Height: 92.0 m
Data from the previous 72 hours. | See also: Recent months for locations in New South Wales
Date/Time
EST
Temp
°C
App
Temp
°C
Dew
Point
Rel
Hum
%
Delta-T
°C
Wind Press
QNH
hPa
Press
MSL
hPa
Rain
since 9 am
mm
Dir
 
Spd
km/h
Gust
km/h
Spd
kts
Gust
kts
02/09:30pm 3.8 -0.5 0.8 81 1.1 SSW 13 17 7 9 1028.5 1028.7 0.0
02/09:00pm 3.7 -0.6 0.9 82 1.1 SW 13 15 7 8 1028.5 1028.7 0.0
02/08:30pm 5.0 0.7 1.1 76 1.5 SW 13 15 7 8 1028.4 1028.6 0.0
02/08:00pm 5.1 0.4 0.9 74 1.6 SSW 15 17 8 9 1028.2 1028.4 0.0
02/07:30pm 6.3 1.3 1.2 70 2.0 SSW 17 20 9 11 1027.8 1028.0 0.0
02/07:00pm 7.2 2.3 1.7 68 2.2 S 17 19 9 10 1027.6 1027.8 0.0
02/06:30pm 7.0 2.8 1.5 68 2.2 SSW 13 15 7 8 1027.2 1027.4 0.0
02/06:00pm 8.8 3.9 1.7 61 2.9 SSW 17 20 9 11 1026.7 1026.9 0.0
02/05:30pm 10.5 5.2 2.8 59 3.3 SSW 20 26 11 14 1026.5 1026.7 0.0
02/05:00pm 11.4 5.9 3.9 60 3.3 SW 22 30 12 16 1026.1 1026.2 0.0
02/04:30pm 12.8 6.4 3.2 52 4.3 SW 26 33 14 18 1025.7 1025.8 0.0
02/04:00pm 12.9 6.9 3.6 53 4.2 SW 24 30 13 16 1025.2 1025.3 0.0
02/03:30pm 13.5 6.4 3.3 50 4.6 SW 30 39 16 21 1025.0 1025.1 0.0
02/03:00pm 14.4 7.5 4.4 51 4.6 SW 30 37 16 20 1024.7 1024.8 0.0
02/02:30pm 14.7 7.4 4.4 50 4.8 SW 32 44 17 24 1024.6 1024.7 0.0
02/02:00pm 14.2 5.9 4.2 51 4.6 SW 37 52 20 28 1024.3 1024.4 0.0
02/01:30pm 14.5 6.6 6.3 58 3.9 SW 37 44 20 24 1024.4 1024.5 0.0
02/01:00pm 13.8 6.5 5.4 57 3.9 WSW 33 43 18 23 1024.2 1024.3 0.0
02/12:30pm 13.4 7.3 6.5 63 3.3 WSW 28 37 15 20 1024.5 1024.6 0.0
02/12:00pm 12.8 6.6 7.9 72 2.4 WSW 30 39 16 21 1025.1 1025.2 0.0
02/11:30am 11.7 5.5 7.8 77 1.9 WSW 30 35 16 19 1025.5 1025.6 0.0
02/11:00am 10.8 4.0 7.1 78 1.8 WSW 32 39 17 21 1025.7 1025.8 0.0
02/10:30am 10.2 4.4 6.4 77 1.8 W 26 35 14 19 1025.6 1025.7 0.0
02/10:00am 9.2 3.9 5.2 76 1.8 WNW 22 32 12 17 1025.5 1025.6 0.0
02/09:30am 8.6 3.1 4.0 73 2.0 WNW 22 28 12 15 1025.4 1025.5 0.0
02/09:00am 8.2 2.7 3.9 74 1.9 WNW 22 35 12 19 1025.5 1025.6 0.2
02/08:30am 6.8 1.8 3.6 80 1.4 WNW 19 22 10 12 1025.6 1025.7 0.2
02/08:00am 5.1 0.8 3.0 86 0.9 NW 15 19 8 10 1025.3 1025.4 0.2
02/07:30am 5.2 0.5 2.9 85 0.9 NW 17 20 9 11 1025.2 1025.3 0.2
02/07:00am 4.9 0.1 2.6 85 0.9 NW 17 20 9 11 1024.8 1024.9 0.2
02/06:30am 5.9 0.6 3.1 82 1.2 NW 20 24 11 13 1024.4 1024.5 0.2
02/06:00am 5.7 0.6 3.2 84 1.0 NW 19 20 10 11 1024.5 1024.6 0.2
02/05:30am 5.4 1.0 2.9 84 1.0 NW 15 19 8 10 1024.5 1024.6 0.2
02/05:00am 5.8 1.5 3.5 85 1.0 NW 15 17 8 9 1024.8 1024.9 0.2
02/04:30am 5.4 1.1 3.3 86 0.9 NW 15 17 8 9 1024.8 1024.9 0.2
02/04:00am 5.5 1.6 3.5 87 0.8 NW 13 15 7 8 1025.1 1025.2 0.2
02/03:30am 5.4 1.1 3.4 87 0.8 NW 15 15 8 8 1025.3 1025.4 0.2
02/03:00am 5.6 1.8 3.8 88 0.8 NNW 13 15 7 8 1025.4 1025.5 0.2
02/02:30am 5.7 1.9 3.7 87 0.8 NNW 13 15 7 8 1025.5 1025.6 0.2
02/02:00am 5.7 2.3 4.0 89 0.7 NNW 11 13 6 7 1025.9 1026.0 0.2
02/01:30am 4.6 1.0 3.1 90 0.6 NW 11 13 6 7 1026.0 1026.1 0.2
02/01:00am 5.1 1.2 3.4 89 0.7 NW 13 15 7 8 1026.3 1026.4 0.2
02/12:30am 5.3 1.4 3.6 89 0.7 NW 13 15 7 8 1026.5 1026.7 0.2
02/12:00am 5.3 1.1 3.6 89 0.7 NW 15 15 8 8 1026.7 1026.9 0.2
 
Date/Time
EST
Temp
°C
App
Temp
°C
Dew
Point
Rel
Hum
%
Delta-T
°C
Wind Press
QNH
hPa
Press
MSL
hPa
Rain
since 9 am
mm
Dir
 
Spd
km/h
Gust
km/h
Spd
kts
Gust
kts
01/11:30pm 4.5 1.0 3.3 92 0.5 NW 11 13 6 7 1027.0 1027.2 0.2
01/11:00pm 4.4 1.2 3.2 92 0.5 NNW 9 11 5 6 1026.8 1027.0 0.2
01/10:30pm 4.8 1.6 3.0 88 0.7 N 9 11 5 6 1026.8 1027.0 0.2
01/10:00pm 5.1 2.0 3.4 89 0.7 N 9 11 5 6 1026.8 1027.0 0.2
01/09:30pm 5.3 2.6 3.8 90 0.6 N 7 9 4 5 1027.0 1027.2 0.2
01/09:00pm 5.3 2.7 4.0 91 0.5 N 7 9 4 5 1027.0 1027.2 0.2
01/08:30pm 4.6 1.5 3.4 92 0.5 NNW 9 9 5 5 1027.3 1027.5 0.2
01/08:00pm 5.1 2.0 3.8 91 0.5 N 9 9 5 5 1027.0 1027.2 0.2
01/07:30pm 5.4 2.7 3.7 89 0.7 N 7 7 4 4 1027.2 1027.4 0.2
01/07:00pm 5.7 3.2 3.7 87 0.8 NNW 6 7 3 4 1027.3 1027.5 0.2
01/06:30pm 5.5 4.1 3.8 89 0.7 CALM 0 0 0 0 1026.6 1026.8 0.2
01/06:00pm 6.3 4.6 3.8 84 1.1 NNW 2 7 1 4 1026.6 1026.8 0.2
01/05:30pm 8.1 6.8 3.9 75 1.8 CALM 0 7 0 4 1026.6 1026.8 0.2
01/05:00pm 9.8 8.6 4.4 69 2.4 CALM 0 0 0 0 1026.6 1026.8 0.2
01/04:30pm 10.8 8.8 4.5 65 2.8 SW 4 7 2 4 1026.6 1026.8 0.2
01/04:00pm 11.7 9.1 4.0 59 3.4 SW 7 11 4 6 1027.0 1027.2 0.2
01/03:30pm 11.9 10.1 3.7 57 3.7 SW 2 7 1 4 1027.0 1027.2 0.2
01/03:00pm 12.1 9.9 3.1 54 4.0 WNW 4 9 2 5 1027.2 1027.4 0.2
01/02:30pm 11.5 10.1 3.3 57 3.6 CALM 0 0 0 0 1027.3 1027.5 0.2
01/02:00pm 11.8 10.0 3.6 57 3.6 ENE 2 7 1 4 1027.4 1027.6 0.2
01/01:30pm 11.3 8.8 3.6 59 3.4 SSW 6 11 3 6 1027.9 1028.1 0.2
01/01:00pm 11.2 8.9 3.0 57 3.6 SE 4 9 2 5 1028.1 1028.3 0.0
01/12:30pm 10.4 8.1 2.7 59 3.3 SSW 4 9 2 5 1028.4 1028.6 0.0
01/12:00pm 10.3 8.7 4.5 67 2.6 SSW 2 7 1 4 1029.0 1029.2 0.0
01/11:30am 9.9 7.5 4.3 68 2.5 SSW 6 11 3 6 1030.0 1030.2 0.0
01/11:00am 8.9 5.9 4.3 73 2.0 WSW 9 13 5 7 1030.5 1030.7 0.0
01/10:30am 8.2 5.7 5.0 80 1.4 WSW 7 9 4 5 1030.8 1031.0 0.0
01/10:00am 7.3 6.0 4.3 81 1.3 CALM 0 0 0 0 1030.5 1030.7 0.0
01/09:30am 6.2 5.2 5.5 95 0.3 CALM 0 0 0 0 1030.0 1030.2 0.0
01/09:00am 3.6 2.2 3.5 99 0.0 CALM 0 0 0 0 1029.9 1030.1 0.0
01/08:30am 2.2 0.5 2.1 99 0.0 CALM 0 0 0 0 1029.9 1030.1 0.0
01/08:00am 0.2 -2.9 0.1 99 0.0 W 6 7 3 4 1030.0 1030.2 0.0
01/07:30am -0.6 -2.7 -0.7 99 0.0 CALM 0 0 0 0 1029.6 1029.8 0.0
01/07:00am -0.9 -4.4 -1.0 99 0.0 W 7 7 4 4 1029.4 1029.6 0.0
01/06:30am -0.1 -2.1 -0.2 99 0.0 CALM 0 0 0 0 1028.8 1028.9 0.0
01/06:00am 0.3 -1.7 0.2 99 0.0 CALM 0 0 0 0 1028.4 1028.5 0.0
01/05:30am 0.2 -2.5 0.1 99 0.0 WSW 4 6 2 3 1028.3 1028.4 0.0
01/05:00am 0.5 -2.8 0.4 99 0.0 WSW 7 7 4 4 1028.3 1028.4 0.0
01/04:30am 1.1 -0.7 1.0 99 0.0 CALM 0 0 0 0 1028.2 1028.3 0.0
01/04:00am 1.6 -0.2 1.5 99 0.0 CALM 0 0 0 0 1028.2 1028.3 0.0
01/03:30am 2.0 0.3 1.9 99 0.0 CALM 0 0 0 0 1028.3 1028.4 0.0
01/03:00am 2.2 0.5 2.1 99 0.0 CALM 0 0 0 0 1028.5 1028.6 0.0
01/02:30am 2.6 1.0 2.5 99 0.0 CALM 0 0 0 0 1028.7 1028.8 0.0
01/02:00am 3.2 1.7 2.8 97 0.2 CALM 0 0 0 0 1028.9 1029.0 0.0
01/01:30am 3.5 1.9 2.6 94 0.4 CALM 0 0 0 0 1029.1 1029.2 0.0
01/01:00am 4.4 3.0 3.7 95 0.3 CALM 0 0 0 0 1029.2 1029.4 0.0
01/12:30am 5.2 3.9 4.2 93 0.4 CALM 0 0 0 0 1029.2 1029.4 0.0
01/12:00am 6.0 3.6 4.2 88 0.8 SW 6 7 3 4 1029.4 1029.6 0.0
 
Date/Time
EST
Temp
°C
App
Temp
°C
Dew
Point
Rel
Hum
%
Delta-T
°C
Wind Press
QNH
hPa
Press
MSL
hPa
Rain
since 9 am
mm
Dir
 
Spd
km/h
Gust
km/h
Spd
kts
Gust
kts
30/11:30pm 7.0 4.5 4.5 84 1.1 S 7 7 4 4 1029.4 1029.6 0.0
30/11:00pm 7.8 4.9 4.9 82 1.3 S 9 11 5 6 1029.5 1029.7 0.0
30/10:30pm 8.4 5.7 5.7 83 1.2 SSW 9 11 5 6 1029.5 1029.7 0.0
30/10:00pm 8.7 6.0 5.8 82 1.3 SW 9 11 5 6 1029.4 1029.6 0.0
30/09:30pm 8.9 5.9 6.0 82 1.3 S 11 13 6 7 1029.4 1029.6 0.0
30/09:00pm 8.8 5.7 5.7 81 1.4 SSW 11 17 6 9 1029.3 1029.5 0.0
30/08:30pm 9.1 7.0 5.8 80 1.5 WSW 6 9 3 5 1029.2 1029.4 0.0
30/08:00pm 9.3 6.5 5.3 76 1.8 WSW 9 11 5 6 1029.1 1029.2 0.0
30/07:30pm 9.4 6.7 5.6 77 1.7 WSW 9 11 5 6 1029.0 1029.1 0.0
30/07:00pm 9.4 7.0 5.4 76 1.8 WSW 7 9 4 5 1028.9 1029.0 0.0
30/06:30pm 10.0 7.1 4.6 69 2.4 WSW 9 11 5 6 1028.8 1028.9 0.0
30/06:00pm 10.0 7.2 5.2 72 2.2 SW 9 11 5 6 1028.5 1028.6 0.0
30/05:30pm 10.4 6.7 4.5 67 2.7 SW 13 15 7 8 1028.2 1028.3 0.0
30/05:00pm 10.7 7.6 3.7 62 3.1 SW 9 13 5 7 1028.0 1028.1 0.0
30/04:30pm 11.4 7.1 3.4 58 3.5 SW 15 19 8 10 1027.9 1028.0 0.0
30/04:00pm 11.7 7.3 4.7 62 3.2 SW 17 20 9 11 1027.9 1028.0 0.0
30/03:30pm 12.0 7.6 4.7 61 3.3 WSW 17 20 9 11 1027.6 1027.7 0.0
30/03:00pm 12.2 8.4 5.8 65 3.0 WSW 15 20 8 11 1027.6 1027.7 0.0
30/02:30pm 12.1 8.0 6.4 68 2.7 WSW 17 24 9 13 1027.6 1027.7 0.0
30/02:00pm 12.3 8.1 5.9 65 3.0 WSW 17 20 9 11 1027.6 1027.7 0.0
30/01:30pm 12.6 9.8 5.3 61 3.4 WNW 9 13 5 7 1027.8 1027.9 0.0
30/01:00pm 12.5 10.3 5.2 61 3.4 W 6 13 3 7 1028.2 1028.3 0.0
30/12:30pm 12.5 10.3 5.2 61 3.4 W 6 11 3 6 1028.6 1028.7 0.0
30/12:00pm 12.4 10.1 5.6 63 3.2 WNW 7 11 4 6 1029.0 1029.1 0.0
30/11:30am 12.1 9.5 5.9 66 2.9 NW 9 13 5 7 1029.3 1029.5 0.0
30/11:00am 11.5 8.9 6.0 69 2.6 NW 9 13 5 7 1029.7 1029.9 0.0
30/10:30am 10.9 8.5 6.8 76 1.9 NNW 9 13 5 7 1029.8 1030.0 0.0
30/10:00am 10.1 7.8 7.3 83 1.3 NNW 9 13 5 7 1029.8 1030.0 0.0
30/09:30am 8.0 5.2 6.8 92 0.6 N 11 13 6 7 1029.8 1030.0 0.0
30/09:00am 7.7 5.6 6.8 94 0.4 N 7 9 4 5 1029.7 1029.9 0.0
30/08:30am 6.4 4.4 6.3 99 0.0 NNE 6 7 3 4 1029.6 1029.8 0.0
30/08:00am 4.8 3.6 4.7 99 0.0 CALM 0 0 0 0 1029.3 1029.5 0.0
30/07:30am 5.4 3.0 5.3 99 0.0 E 7 7 4 4 1029.1 1029.2 0.0
30/07:00am 5.3 4.2 5.2 99 0.0 CALM 0 9 0 5 1029.0 1029.1 0.0
30/06:30am 5.3 4.2 5.2 99 0.0 CALM 0 0 0 0 1029.0 1029.1 0.0
30/06:00am 5.6 4.5 5.3 98 0.1 CALM 0 0 0 0 1028.8 1028.9 0.0
30/05:30am 6.2 5.3 5.9 98 0.1 CALM 0 0 0 0 1028.7 1028.8 0.0
30/05:00am 6.4 4.7 5.8 96 0.3 W 4 15 2 8 1028.5 1028.6 0.0
30/04:30am 6.7 4.7 6.3 97 0.2 WNW 6 7 3 4 1028.4 1028.5 0.0
30/04:00am 6.7 4.1 6.3 97 0.2 NNW 9 9 5 5 1028.5 1028.6 0.0
30/03:30am 6.9 4.0 6.6 98 0.1 N 11 13 6 7 1028.6 1028.7 0.0
30/03:00am 6.6 4.5 6.5 99 0.0 N 7 9 4 5 1028.8 1028.9 0.0
30/02:30am 6.4 5.6 6.3 99 0.0 CALM 0 0 0 0 1028.7 1028.8 0.0
30/02:00am 6.5 5.7 6.4 99 0.0 CALM 0 0 0 0 1028.7 1028.8 0.0
30/01:30am 6.6 5.8 6.3 98 0.1 CALM 0 0 0 0 1029.0 1029.1 0.0
30/01:00am 6.6 4.6 6.3 98 0.1 SSW 6 7 3 4 1029.1 1029.2 0.0
30/12:30am 6.7 4.7 6.3 97 0.2 SSW 6 9 3 5 1029.1 1029.2 0.0
30/12:00am 6.7 4.1 6.3 97 0.2 WSW 9 11 5 6 1029.4 1029.6 0.0
 
Date/Time
EST
Temp
°C
App
Temp
°C
Dew
Point
Rel
Hum
%
Delta-T
°C
Wind Press
QNH
hPa
Press
MSL
hPa
Rain
since 9 am
mm
Dir
 
Spd
km/h
Gust
km/h
Spd
kts
Gust
kts
29/11:30pm 6.5 3.6 6.4 99 0.0 NNW 11 13 6 7 1029.6 1029.8 0.0
29/11:00pm 4.9 2.0 4.5 97 0.2 N 9 11 5 6 1029.3 1029.5 0.0
29/10:30pm 5.8 4.7 5.1 95 0.3 CALM 0 6 0 3 1029.4 1029.6 0.0

Other Formats:

Comma delimited format used in spreadsheet applications
http://www.bom.gov.au/fwo/IDN60801/IDN60801.94702.axf

JavaScript Object Notation format (JSON) in row-major order
http://www.bom.gov.au/fwo/IDN60801/IDN60801.94702.json